sensor_id;sensor_type;location;lat;lon;timestamp;P1;durP1;ratioP1;P2;durP2;ratioP2
20065;SDS011;10193;48.884;9.182;2023-04-07T00:01:05;4.45;;;4.05;;
20065;SDS011;10193;48.884;9.182;2023-04-07T00:03:32;3.70;;;3.40;;
20065;SDS011;10193;48.884;9.182;2023-04-07T00:05:59;3.90;;;3.60;;
20065;SDS011;10193;48.884;9.182;2023-04-07T00:08:26;4.15;;;3.80;;
20065;SDS011;10193;48.884;9.182;2023-04-07T00:10:54;3.78;;;3.47;;
20065;SDS011;10193;48.884;9.182;2023-04-07T00:13:21;4.20;;;3.85;;
20065;SDS011;10193;48.884;9.182;2023-04-07T00:15:48;4.20;;;3.63;;
20065;SDS011;10193;48.884;9.182;2023-04-07T00:18:14;3.97;;;3.55;;
20065;SDS011;10193;48.884;9.182;2023-04-07T00:20:41;4.30;;;3.90;;
20065;SDS011;10193;48.884;9.182;2023-04-07T00:23:08;4.05;;;3.65;;
20065;SDS011;10193;48.884;9.182;2023-04-07T00:25:35;3.83;;;3.53;;
20065;SDS011;10193;48.884;9.182;2023-04-07T00:28:03;3.80;;;3.47;;
20065;SDS011;10193;48.884;9.182;2023-04-07T00:30:29;3.92;;;3.63;;
20065;SDS011;10193;48.884;9.182;2023-04-07T00:32:56;4.13;;;3.70;;
20065;SDS011;10193;48.884;9.182;2023-04-07T00:35:23;4.40;;;4.00;;
20065;SDS011;10193;48.884;9.182;2023-04-07T00:37:49;4.30;;;3.90;;
20065;SDS011;10193;48.884;9.182;2023-04-07T00:40:16;3.97;;;3.67;;
20065;SDS011;10193;48.884;9.182;2023-04-07T00:42:43;4.15;;;3.83;;
20065;SDS011;10193;48.884;9.182;2023-04-07T00:45:11;3.88;;;3.58;;
20065;SDS011;10193;48.884;9.182;2023-04-07T00:47:38;5.00;;;3.67;;
20065;SDS011;10193;48.884;9.182;2023-04-07T00:50:05;3.70;;;3.40;;
20065;SDS011;10193;48.884;9.182;2023-04-07T00:52:32;3.63;;;3.38;;
20065;SDS011;10193;48.884;9.182;2023-04-07T00:54:59;4.00;;;3.67;;
20065;SDS011;10193;48.884;9.182;2023-04-07T00:57:26;4.63;;;3.88;;
20065;SDS011;10193;48.884;9.182;2023-04-07T00:59:53;3.72;;;3.42;;
20065;SDS011;10193;48.884;9.182;2023-04-07T01:02:24;4.40;;;4.00;;
20065;SDS011;10193;48.884;9.182;2023-04-07T01:04:58;3.80;;;3.50;;
20065;SDS011;10193;48.884;9.182;2023-04-07T01:07:33;3.88;;;3.58;;
20065;SDS011;10193;48.884;9.182;2023-04-07T01:10:04;3.72;;;3.42;;
20065;SDS011;10193;48.884;9.182;2023-04-07T01:12:35;3.70;;;3.40;;
20065;SDS011;10193;48.884;9.182;2023-04-07T01:15:22;3.70;;;3.40;;
20065;SDS011;10193;48.884;9.182;2023-04-07T01:17:55;3.90;;;3.60;;
20065;SDS011;10193;48.884;9.182;2023-04-07T01:20:31;3.70;;;3.40;;
20065;SDS011;10193;48.884;9.182;2023-04-07T01:23:00;3.72;;;3.42;;
20065;SDS011;10193;48.884;9.182;2023-04-07T01:25:52;3.60;;;3.30;;
20065;SDS011;10193;48.884;9.182;2023-04-07T01:28:32;3.67;;;3.38;;
20065;SDS011;10193;48.884;9.182;2023-04-07T01:31:11;3.80;;;3.50;;
20065;SDS011;10193;48.884;9.182;2023-04-07T01:33:40;3.58;;;3.28;;
20065;SDS011;10193;48.884;9.182;2023-04-07T01:36:10;3.83;;;3.53;;
20065;SDS011;10193;48.884;9.182;2023-04-07T01:38:37;4.00;;;3.60;;
20065;SDS011;10193;48.884;9.182;2023-04-07T01:41:05;4.00;;;3.67;;
20065;SDS011;10193;48.884;9.182;2023-04-07T01:43:33;4.18;;;3.80;;
20065;SDS011;10193;48.884;9.182;2023-04-07T01:46:03;4.10;;;3.70;;
20065;SDS011;10193;48.884;9.182;2023-04-07T01:48:32;3.97;;;3.58;;
20065;SDS011;10193;48.884;9.182;2023-04-07T01:51:00;3.85;;;3.55;;
20065;SDS011;10193;48.884;9.182;2023-04-07T01:53:27;3.83;;;3.53;;
20065;SDS011;10193;48.884;9.182;2023-04-07T01:55:55;3.80;;;3.50;;
20065;SDS011;10193;48.884;9.182;2023-04-07T01:58:21;3.58;;;3.28;;
20065;SDS011;10193;48.884;9.182;2023-04-07T02:00:49;4.40;;;4.00;;
20065;SDS011;10193;48.884;9.182;2023-04-07T02:03:17;3.85;;;3.35;;
20065;SDS011;10193;48.884;9.182;2023-04-07T02:05:51;4.25;;;3.58;;
20065;SDS011;10193;48.884;9.182;2023-04-07T02:08:20;4.07;;;3.20;;
20065;SDS011;10193;48.884;9.182;2023-04-07T02:10:52;3.88;;;3.58;;
20065;SDS011;10193;48.884;9.182;2023-04-07T02:13:20;3.65;;;3.35;;
20065;SDS011;10193;48.884;9.182;2023-04-07T02:15:49;3.70;;;3.40;;
20065;SDS011;10193;48.884;9.182;2023-04-07T02:18:16;5.10;;;3.78;;
20065;SDS011;10193;48.884;9.182;2023-04-07T02:20:45;3.88;;;3.58;;
20065;SDS011;10193;48.884;9.182;2023-04-07T02:23:14;3.97;;;3.58;;
20065;SDS011;10193;48.884;9.182;2023-04-07T02:25:41;4.28;;;3.53;;
20065;SDS011;10193;48.884;9.182;2023-04-07T02:28:08;3.45;;;3.20;;
20065;SDS011;10193;48.884;9.182;2023-04-07T02:30:34;3.95;;;3.55;;
20065;SDS011;10193;48.884;9.182;2023-04-07T02:33:01;3.65;;;3.35;;
20065;SDS011;10193;48.884;9.182;2023-04-07T02:35:28;3.88;;;3.58;;
20065;SDS011;10193;48.884;9.182;2023-04-07T02:37:54;4.15;;;3.75;;
20065;SDS011;10193;48.884;9.182;2023-04-07T02:40:22;4.00;;;3.63;;
20065;SDS011;10193;48.884;9.182;2023-04-07T02:42:49;4.15;;;3.58;;
20065;SDS011;10193;48.884;9.182;2023-04-07T02:45:16;5.07;;;3.67;;
20065;SDS011;10193;48.884;9.182;2023-04-07T02:47:42;4.75;;;3.85;;
20065;SDS011;10193;48.884;9.182;2023-04-07T02:50:09;4.68;;;4.03;;
20065;SDS011;10193;48.884;9.182;2023-04-07T02:52:36;4.35;;;3.95;;
20065;SDS011;10193;48.884;9.182;2023-04-07T02:55:03;4.20;;;3.90;;
20065;SDS011;10193;48.884;9.182;2023-04-07T02:57:32;4.05;;;3.72;;
20065;SDS011;10193;48.884;9.182;2023-04-07T02:59:59;4.20;;;3.80;;
20065;SDS011;10193;48.884;9.182;2023-04-07T03:02:25;3.90;;;3.60;;
20065;SDS011;10193;48.884;9.182;2023-04-07T03:04:52;4.32;;;3.92;;
20065;SDS011;10193;48.884;9.182;2023-04-07T03:07:19;4.53;;;4.03;;
20065;SDS011;10193;48.884;9.182;2023-04-07T03:09:45;4.47;;;4.07;;
20065;SDS011;10193;48.884;9.182;2023-04-07T03:12:12;4.60;;;4.20;;
20065;SDS011;10193;48.884;9.182;2023-04-07T03:14:40;4.47;;;4.07;;
20065;SDS011;10193;48.884;9.182;2023-04-07T03:17:07;4.63;;;4.22;;
20065;SDS011;10193;48.884;9.182;2023-04-07T03:19:33;4.35;;;4.00;;
20065;SDS011;10193;48.884;9.182;2023-04-07T03:22:00;4.40;;;4.00;;
20065;SDS011;10193;48.884;9.182;2023-04-07T03:24:27;4.80;;;4.30;;
20065;SDS011;10193;48.884;9.182;2023-04-07T03:26:53;4.30;;;3.70;;
20065;SDS011;10193;48.884;9.182;2023-04-07T03:29:20;4.25;;;3.95;;
20065;SDS011;10193;48.884;9.182;2023-04-07T03:31:48;4.43;;;4.03;;
20065;SDS011;10193;48.884;9.182;2023-04-07T03:34:15;4.25;;;3.85;;
20065;SDS011;10193;48.884;9.182;2023-04-07T03:36:42;3.83;;;3.53;;
20065;SDS011;10193;48.884;9.182;2023-04-07T03:39:08;4.43;;;4.00;;
20065;SDS011;10193;48.884;9.182;2023-04-07T03:41:35;4.38;;;3.90;;
20065;SDS011;10193;48.884;9.182;2023-04-07T03:44:02;4.22;;;3.83;;
20065;SDS011;10193;48.884;9.182;2023-04-07T03:46:28;4.38;;;3.97;;
20065;SDS011;10193;48.884;9.182;2023-04-07T03:48:57;4.13;;;3.72;;
20065;SDS011;10193;48.884;9.182;2023-04-07T03:51:24;4.07;;;3.78;;
20065;SDS011;10193;48.884;9.182;2023-04-07T03:53:52;4.25;;;3.85;;
20065;SDS011;10193;48.884;9.182;2023-04-07T03:56:19;4.35;;;3.95;;
20065;SDS011;10193;48.884;9.182;2023-04-07T03:58:46;4.72;;;4.32;;
20065;SDS011;10193;48.884;9.182;2023-04-07T04:01:13;4.32;;;3.97;;
20065;SDS011;10193;48.884;9.182;2023-04-07T04:03:40;4.18;;;3.88;;
20065;SDS011;10193;48.884;9.182;2023-04-07T04:06:08;4.75;;;4.35;;
20065;SDS011;10193;48.884;9.182;2023-04-07T04:08:34;4.68;;;4.28;;
20065;SDS011;10193;48.884;9.182;2023-04-07T04:11:01;5.03;;;4.53;;
20065;SDS011;10193;48.884;9.182;2023-04-07T04:13:28;4.75;;;4.10;;
20065;SDS011;10193;48.884;9.182;2023-04-07T04:15:55;4.88;;;4.40;;
20065;SDS011;10193;48.884;9.182;2023-04-07T04:18:21;4.75;;;4.35;;
20065;SDS011;10193;48.884;9.182;2023-04-07T04:20:48;4.72;;;4.32;;
20065;SDS011;10193;48.884;9.182;2023-04-07T04:23:16;4.63;;;4.22;;
20065;SDS011;10193;48.884;9.182;2023-04-07T04:25:42;4.57;;;4.00;;
20065;SDS011;10193;48.884;9.182;2023-04-07T04:28:09;4.63;;;4.22;;
20065;SDS011;10193;48.884;9.182;2023-04-07T04:30:36;4.60;;;4.20;;
20065;SDS011;10193;48.884;9.182;2023-04-07T04:33:02;4.55;;;4.15;;
20065;SDS011;10193;48.884;9.182;2023-04-07T04:35:29;4.57;;;4.15;;
20065;SDS011;10193;48.884;9.182;2023-04-07T04:37:56;4.85;;;4.45;;
20065;SDS011;10193;48.884;9.182;2023-04-07T04:40:24;5.28;;;4.60;;
20065;SDS011;10193;48.884;9.182;2023-04-07T04:42:51;5.03;;;4.55;;
20065;SDS011;10193;48.884;9.182;2023-04-07T04:45:17;5.00;;;4.50;;
20065;SDS011;10193;48.884;9.182;2023-04-07T04:47:44;4.93;;;4.38;;
20065;SDS011;10193;48.884;9.182;2023-04-07T04:50:10;5.00;;;4.50;;
20065;SDS011;10193;48.884;9.182;2023-04-07T04:52:37;4.82;;;4.35;;
20065;SDS011;10193;48.884;9.182;2023-04-07T04:55:04;4.60;;;4.20;;
20065;SDS011;10193;48.884;9.182;2023-04-07T04:57:33;4.65;;;4.25;;
20065;SDS011;10193;48.884;9.182;2023-04-07T05:00:00;4.60;;;4.18;;
20065;SDS011;10193;48.884;9.182;2023-04-07T05:02:28;4.80;;;4.30;;
20065;SDS011;10193;48.884;9.182;2023-04-07T05:04:55;4.70;;;4.30;;
20065;SDS011;10193;48.884;9.182;2023-04-07T05:07:21;4.68;;;4.28;;
20065;SDS011;10193;48.884;9.182;2023-04-07T05:09:48;4.68;;;4.28;;
20065;SDS011;10193;48.884;9.182;2023-04-07T05:12:15;4.63;;;3.97;;
20065;SDS011;10193;48.884;9.182;2023-04-07T05:14:43;4.75;;;4.35;;
20065;SDS011;10193;48.884;9.182;2023-04-07T05:17:09;4.85;;;4.45;;
20065;SDS011;10193;48.884;9.182;2023-04-07T05:19:36;4.88;;;4.40;;
20065;SDS011;10193;48.884;9.182;2023-04-07T05:22:03;4.68;;;4.28;;
20065;SDS011;10193;48.884;9.182;2023-04-07T05:24:29;4.70;;;4.30;;
20065;SDS011;10193;48.884;9.182;2023-04-07T05:26:56;4.70;;;4.30;;
20065;SDS011;10193;48.884;9.182;2023-04-07T05:29:23;4.30;;;3.90;;
20065;SDS011;10193;48.884;9.182;2023-04-07T05:31:51;4.75;;;4.35;;
20065;SDS011;10193;48.884;9.182;2023-04-07T05:34:18;4.88;;;4.47;;
20065;SDS011;10193;48.884;9.182;2023-04-07T05:36:44;4.63;;;4.22;;
20065;SDS011;10193;48.884;9.182;2023-04-07T05:39:11;4.68;;;4.28;;
20065;SDS011;10193;48.884;9.182;2023-04-07T05:41:38;4.63;;;4.22;;
20065;SDS011;10193;48.884;9.182;2023-04-07T05:44:05;4.80;;;4.40;;
20065;SDS011;10193;48.884;9.182;2023-04-07T05:46:31;4.72;;;4.32;;
20065;SDS011;10193;48.884;9.182;2023-04-07T05:48:59;4.97;;;4.25;;
20065;SDS011;10193;48.884;9.182;2023-04-07T05:51:26;5.07;;;4.63;;
20065;SDS011;10193;48.884;9.182;2023-04-07T05:53:53;7.30;;;4.72;;
20065;SDS011;10193;48.884;9.182;2023-04-07T05:56:19;5.15;;;4.65;;
20065;SDS011;10193;48.884;9.182;2023-04-07T05:58:46;4.95;;;4.53;;
20065;SDS011;10193;48.884;9.182;2023-04-07T06:01:13;4.82;;;4.43;;
20065;SDS011;10193;48.884;9.182;2023-04-07T06:03:39;4.85;;;4.40;;
20065;SDS011;10193;48.884;9.182;2023-04-07T06:06:07;4.90;;;4.40;;
20065;SDS011;10193;48.884;9.182;2023-04-07T06:08:34;4.93;;;4.43;;
20065;SDS011;10193;48.884;9.182;2023-04-07T06:11:01;5.10;;;4.65;;
20065;SDS011;10193;48.884;9.182;2023-04-07T06:13:28;5.40;;;4.90;;
20065;SDS011;10193;48.884;9.182;2023-04-07T06:15:55;4.95;;;4.40;;
20065;SDS011;10193;48.884;9.182;2023-04-07T06:18:22;5.10;;;4.60;;
20065;SDS011;10193;48.884;9.182;2023-04-07T06:20:48;4.78;;;4.38;;
20065;SDS011;10193;48.884;9.182;2023-04-07T06:23:16;5.10;;;4.70;;
20065;SDS011;10193;48.884;9.182;2023-04-07T06:25:43;4.72;;;4.32;;
20065;SDS011;10193;48.884;9.182;2023-04-07T06:28:10;4.93;;;4.53;;
20065;SDS011;10193;48.884;9.182;2023-04-07T06:30:36;4.47;;;4.07;;
20065;SDS011;10193;48.884;9.182;2023-04-07T06:33:04;5.05;;;4.55;;
20065;SDS011;10193;48.884;9.182;2023-04-07T06:35:31;5.07;;;4.57;;
20065;SDS011;10193;48.884;9.182;2023-04-07T06:37:58;4.90;;;4.47;;
20065;SDS011;10193;48.884;9.182;2023-04-07T06:40:26;4.60;;;4.20;;
20065;SDS011;10193;48.884;9.182;2023-04-07T06:42:53;5.00;;;4.53;;
20065;SDS011;10193;48.884;9.182;2023-04-07T06:45:20;4.63;;;4.18;;
20065;SDS011;10193;48.884;9.182;2023-04-07T06:47:47;5.53;;;5.03;;
20065;SDS011;10193;48.884;9.182;2023-04-07T06:50:14;4.38;;;3.97;;
20065;SDS011;10193;48.884;9.182;2023-04-07T06:52:44;4.78;;;4.38;;
20065;SDS011;10193;48.884;9.182;2023-04-07T06:55:11;4.80;;;4.40;;
20065;SDS011;10193;48.884;9.182;2023-04-07T06:57:39;5.25;;;4.72;;
20065;SDS011;10193;48.884;9.182;2023-04-07T07:00:06;4.82;;;4.43;;
20065;SDS011;10193;48.884;9.182;2023-04-07T07:02:34;4.78;;;4.28;;
20065;SDS011;10193;48.884;9.182;2023-04-07T07:05:00;5.10;;;4.60;;
20065;SDS011;10193;48.884;9.182;2023-04-07T07:07:28;5.05;;;4.65;;
20065;SDS011;10193;48.884;9.182;2023-04-07T07:09:55;4.93;;;4.43;;
20065;SDS011;10193;48.884;9.182;2023-04-07T07:12:21;5.32;;;4.25;;
20065;SDS011;10193;48.884;9.182;2023-04-07T07:14:49;5.03;;;4.53;;
20065;SDS011;10193;48.884;9.182;2023-04-07T07:17:16;4.88;;;4.47;;
20065;SDS011;10193;48.884;9.182;2023-04-07T07:19:43;5.20;;;4.70;;
20065;SDS011;10193;48.884;9.182;2023-04-07T07:22:09;5.25;;;4.82;;
20065;SDS011;10193;48.884;9.182;2023-04-07T07:24:36;5.10;;;4.63;;
20065;SDS011;10193;48.884;9.182;2023-04-07T07:27:03;5.63;;;4.85;;
20065;SDS011;10193;48.884;9.182;2023-04-07T07:29:30;5.07;;;4.57;;
20065;SDS011;10193;48.884;9.182;2023-04-07T07:31:59;4.82;;;4.40;;
20065;SDS011;10193;48.884;9.182;2023-04-07T07:34:25;5.72;;;5.22;;
20065;SDS011;10193;48.884;9.182;2023-04-07T07:36:52;5.60;;;5.05;;
20065;SDS011;10193;48.884;9.182;2023-04-07T07:39:18;5.43;;;4.93;;
20065;SDS011;10193;48.884;9.182;2023-04-07T07:41:45;5.47;;;4.97;;
20065;SDS011;10193;48.884;9.182;2023-04-07T07:44:12;5.20;;;4.80;;
20065;SDS011;10193;48.884;9.182;2023-04-07T07:46:38;5.82;;;5.00;;
20065;SDS011;10193;48.884;9.182;2023-04-07T07:49:06;5.40;;;4.90;;
20065;SDS011;10193;48.884;9.182;2023-04-07T07:51:33;5.85;;;5.35;;
20065;SDS011;10193;48.884;9.182;2023-04-07T07:54:00;5.32;;;4.82;;
20065;SDS011;10193;48.884;9.182;2023-04-07T07:56:27;5.82;;;5.05;;
20065;SDS011;10193;48.884;9.182;2023-04-07T07:58:54;5.95;;;5.05;;
20065;SDS011;10193;48.884;9.182;2023-04-07T08:01:20;5.38;;;4.97;;
20065;SDS011;10193;48.884;9.182;2023-04-07T08:03:47;5.53;;;5.03;;
20065;SDS011;10193;48.884;9.182;2023-04-07T08:06:15;4.85;;;4.45;;
20065;SDS011;10193;48.884;9.182;2023-04-07T08:08:42;5.38;;;4.93;;
20065;SDS011;10193;48.884;9.182;2023-04-07T08:11:09;5.68;;;4.55;;
20065;SDS011;10193;48.884;9.182;2023-04-07T08:13:36;4.88;;;4.47;;
20065;SDS011;10193;48.884;9.182;2023-04-07T08:16:02;5.40;;;4.90;;
20065;SDS011;10193;48.884;9.182;2023-04-07T08:18:29;5.40;;;4.63;;
20065;SDS011;10193;48.884;9.182;2023-04-07T08:20:56;4.65;;;4.22;;
20065;SDS011;10193;48.884;9.182;2023-04-07T08:23:24;4.85;;;4.45;;
20065;SDS011;10193;48.884;9.182;2023-04-07T08:25:51;5.32;;;4.82;;
20065;SDS011;10193;48.884;9.182;2023-04-07T08:28:18;4.75;;;4.35;;
20065;SDS011;10193;48.884;9.182;2023-04-07T08:30:45;4.70;;;4.20;;
20065;SDS011;10193;48.884;9.182;2023-04-07T08:33:11;4.40;;;4.00;;
20065;SDS011;10193;48.884;9.182;2023-04-07T08:35:38;4.45;;;4.05;;
20065;SDS011;10193;48.884;9.182;2023-04-07T08:38:05;4.22;;;3.88;;
20065;SDS011;10193;48.884;9.182;2023-04-07T08:40:34;3.90;;;3.60;;
20065;SDS011;10193;48.884;9.182;2023-04-07T08:43:01;4.40;;;4.10;;
20065;SDS011;10193;48.884;9.182;2023-04-07T08:45:31;5.07;;;4.57;;
20065;SDS011;10193;48.884;9.182;2023-04-07T08:47:59;4.53;;;4.13;;
20065;SDS011;10193;48.884;9.182;2023-04-07T08:50:31;4.65;;;4.25;;
20065;SDS011;10193;48.884;9.182;2023-04-07T08:52:59;4.88;;;4.10;;
20065;SDS011;10193;48.884;9.182;2023-04-07T08:55:29;4.93;;;3.88;;
20065;SDS011;10193;48.884;9.182;2023-04-07T08:57:57;4.57;;;4.07;;
20065;SDS011;10193;48.884;9.182;2023-04-07T09:00:24;4.80;;;4.15;;
20065;SDS011;10193;48.884;9.182;2023-04-07T09:02:52;4.20;;;3.90;;
20065;SDS011;10193;48.884;9.182;2023-04-07T09:05:19;4.53;;;4.10;;
20065;SDS011;10193;48.884;9.182;2023-04-07T09:07:46;4.28;;;3.90;;
20065;SDS011;10193;48.884;9.182;2023-04-07T09:10:12;4.90;;;4.10;;
20065;SDS011;10193;48.884;9.182;2023-04-07T09:12:39;4.55;;;4.15;;
20065;SDS011;10193;48.884;9.182;2023-04-07T09:15:07;4.53;;;4.13;;
20065;SDS011;10193;48.884;9.182;2023-04-07T09:17:34;4.53;;;4.13;;
20065;SDS011;10193;48.884;9.182;2023-04-07T09:20:01;5.10;;;4.00;;
20065;SDS011;10193;48.884;9.182;2023-04-07T09:22:35;4.13;;;3.83;;
20065;SDS011;10193;48.884;9.182;2023-04-07T09:25:12;4.53;;;4.03;;
20065;SDS011;10193;48.884;9.182;2023-04-07T09:27:52;3.67;;;3.38;;
20065;SDS011;10193;48.884;9.182;2023-04-07T09:30:24;4.15;;;3.80;;
20065;SDS011;10193;48.884;9.182;2023-04-07T09:32:52;4.70;;;4.30;;
20065;SDS011;10193;48.884;9.182;2023-04-07T09:35:18;4.03;;;3.72;;
20065;SDS011;10193;48.884;9.182;2023-04-07T09:37:59;3.95;;;3.60;;
20065;SDS011;10193;48.884;9.182;2023-04-07T09:40:28;3.75;;;3.45;;
20065;SDS011;10193;48.884;9.182;2023-04-07T09:42:55;3.65;;;3.35;;
20065;SDS011;10193;48.884;9.182;2023-04-07T09:45:24;5.75;;;3.60;;
20065;SDS011;10193;48.884;9.182;2023-04-07T09:47:52;4.22;;;3.50;;
20065;SDS011;10193;48.884;9.182;2023-04-07T09:50:31;4.45;;;3.65;;
20065;SDS011;10193;48.884;9.182;2023-04-07T09:53:00;3.55;;;3.25;;
20065;SDS011;10193;48.884;9.182;2023-04-07T09:55:28;3.22;;;2.97;;
20065;SDS011;10193;48.884;9.182;2023-04-07T09:57:56;3.63;;;2.85;;
20065;SDS011;10193;48.884;9.182;2023-04-07T10:00:24;3.22;;;2.92;;
20065;SDS011;10193;48.884;9.182;2023-04-07T10:02:51;3.45;;;3.15;;
20065;SDS011;10193;48.884;9.182;2023-04-07T10:05:18;3.30;;;2.97;;
20065;SDS011;10193;48.884;9.182;2023-04-07T10:07:46;3.20;;;2.90;;
20065;SDS011;10193;48.884;9.182;2023-04-07T10:10:13;3.88;;;3.25;;
20065;SDS011;10193;48.884;9.182;2023-04-07T10:12:40;3.65;;;3.28;;
20065;SDS011;10193;48.884;9.182;2023-04-07T10:15:07;4.72;;;3.50;;
20065;SDS011;10193;48.884;9.182;2023-04-07T10:17:38;3.78;;;3.47;;
20065;SDS011;10193;48.884;9.182;2023-04-07T10:20:06;3.85;;;3.55;;
20065;SDS011;10193;48.884;9.182;2023-04-07T10:22:35;3.90;;;3.60;;
20065;SDS011;10193;48.884;9.182;2023-04-07T10:25:03;3.88;;;3.58;;
20065;SDS011;10193;48.884;9.182;2023-04-07T10:27:36;4.38;;;3.97;;
20065;SDS011;10193;48.884;9.182;2023-04-07T10:30:11;3.97;;;3.67;;
20065;SDS011;10193;48.884;9.182;2023-04-07T10:32:51;4.00;;;3.70;;
20065;SDS011;10193;48.884;9.182;2023-04-07T10:35:19;4.10;;;3.70;;
20065;SDS011;10193;48.884;9.182;2023-04-07T10:40:35;3.75;;;3.45;;
20065;SDS011;10193;48.884;9.182;2023-04-07T10:43:03;4.43;;;3.90;;
20065;SDS011;10193;48.884;9.182;2023-04-07T10:45:52;3.83;;;3.53;;
20065;SDS011;10193;48.884;9.182;2023-04-07T10:48:25;4.00;;;3.70;;
20065;SDS011;10193;48.884;9.182;2023-04-07T10:57:09;3.88;;;3.50;;
20065;SDS011;10193;48.884;9.182;2023-04-07T10:59:40;3.90;;;3.60;;
20065;SDS011;10193;48.884;9.182;2023-04-07T11:02:31;4.05;;;3.72;;
20065;SDS011;10193;48.884;9.182;2023-04-07T11:05:00;4.32;;;3.95;;
20065;SDS011;10193;48.884;9.182;2023-04-07T11:07:43;4.40;;;3.97;;
20065;SDS011;10193;48.884;9.182;2023-04-07T11:10:12;4.03;;;3.63;;
20065;SDS011;10193;48.884;9.182;2023-04-07T11:12:40;4.05;;;3.75;;
20065;SDS011;10193;48.884;9.182;2023-04-07T11:15:16;3.85;;;3.45;;
20065;SDS011;10193;48.884;9.182;2023-04-07T11:17:44;3.85;;;3.47;;
20065;SDS011;10193;48.884;9.182;2023-04-07T11:20:12;4.93;;;3.65;;
20065;SDS011;10193;48.884;9.182;2023-04-07T11:22:39;4.10;;;3.70;;
20065;SDS011;10193;48.884;9.182;2023-04-07T11:25:19;3.90;;;3.60;;
20065;SDS011;10193;48.884;9.182;2023-04-07T11:27:47;3.80;;;3.50;;
20065;SDS011;10193;48.884;9.182;2023-04-07T11:30:14;3.70;;;3.03;;
20065;SDS011;10193;48.884;9.182;2023-04-07T11:32:46;3.72;;;3.40;;
20065;SDS011;10193;48.884;9.182;2023-04-07T11:35:16;3.85;;;3.50;;
20065;SDS011;10193;48.884;9.182;2023-04-07T11:37:43;3.40;;;3.08;;
20065;SDS011;10193;48.884;9.182;2023-04-07T11:40:10;3.30;;;3.03;;
20065;SDS011;10193;48.884;9.182;2023-04-07T11:42:40;3.35;;;3.05;;
20065;SDS011;10193;48.884;9.182;2023-04-07T11:45:15;3.78;;;3.17;;
20065;SDS011;10193;48.884;9.182;2023-04-07T11:47:43;3.35;;;3.10;;
20065;SDS011;10193;48.884;9.182;2023-04-07T11:50:10;3.45;;;3.15;;
20065;SDS011;10193;48.884;9.182;2023-04-07T11:52:41;3.00;;;2.80;;
20065;SDS011;10193;48.884;9.182;2023-04-07T11:55:15;4.15;;;3.78;;
20065;SDS011;10193;48.884;9.182;2023-04-07T11:57:43;3.35;;;3.05;;
20065;SDS011;10193;48.884;9.182;2023-04-07T12:00:10;2.90;;;2.70;;
20065;SDS011;10193;48.884;9.182;2023-04-07T12:02:38;3.00;;;2.70;;
20065;SDS011;10193;48.884;9.182;2023-04-07T12:05:06;3.92;;;2.42;;
20065;SDS011;10193;48.884;9.182;2023-04-07T12:07:34;2.78;;;2.58;;
20065;SDS011;10193;48.884;9.182;2023-04-07T12:12:47;2.50;;;2.30;;
20065;SDS011;10193;48.884;9.182;2023-04-07T12:15:15;2.40;;;2.20;;
20065;SDS011;10193;48.884;9.182;2023-04-07T12:17:45;2.50;;;2.30;;
20065;SDS011;10193;48.884;9.182;2023-04-07T12:20:13;1.85;;;1.75;;
20065;SDS011;10193;48.884;9.182;2023-04-07T12:22:40;2.13;;;1.95;;
20065;SDS011;10193;48.884;9.182;2023-04-07T12:25:07;2.08;;;1.98;;
20065;SDS011;10193;48.884;9.182;2023-04-07T12:27:35;2.63;;;2.40;;
20065;SDS011;10193;48.884;9.182;2023-04-07T12:30:02;3.53;;;2.70;;
20065;SDS011;10193;48.884;9.182;2023-04-07T12:32:29;3.35;;;2.70;;
20065;SDS011;10193;48.884;9.182;2023-04-07T12:34:56;2.58;;;2.38;;
20065;SDS011;10193;48.884;9.182;2023-04-07T12:37:23;2.80;;;2.17;;
20065;SDS011;10193;48.884;9.182;2023-04-07T12:39:50;2.08;;;1.98;;
20065;SDS011;10193;48.884;9.182;2023-04-07T12:42:17;2.72;;;1.95;;
20065;SDS011;10193;48.884;9.182;2023-04-07T12:44:45;2.10;;;1.90;;
20065;SDS011;10193;48.884;9.182;2023-04-07T12:47:11;2.53;;;2.08;;
20065;SDS011;10193;48.884;9.182;2023-04-07T12:49:38;2.03;;;1.70;;
20065;SDS011;10193;48.884;9.182;2023-04-07T12:52:05;2.60;;;1.75;;
20065;SDS011;10193;48.884;9.182;2023-04-07T12:54:31;1.58;;;1.48;;
20065;SDS011;10193;48.884;9.182;2023-04-07T12:56:59;1.48;;;1.38;;
20065;SDS011;10193;48.884;9.182;2023-04-07T12:59:25;1.63;;;1.52;;
20065;SDS011;10193;48.884;9.182;2023-04-07T13:01:53;2.40;;;1.77;;
20065;SDS011;10193;48.884;9.182;2023-04-07T13:04:20;1.60;;;1.42;;
20065;SDS011;10193;48.884;9.182;2023-04-07T13:06:48;2.22;;;1.80;;
20065;SDS011;10193;48.884;9.182;2023-04-07T13:09:15;2.90;;;2.50;;
20065;SDS011;10193;48.884;9.182;2023-04-07T13:11:41;2.80;;;2.60;;
20065;SDS011;10193;48.884;9.182;2023-04-07T13:14:08;2.83;;;2.63;;
20065;SDS011;10193;48.884;9.182;2023-04-07T13:16:35;2.80;;;2.53;;
20065;SDS011;10193;48.884;9.182;2023-04-07T13:19:03;3.55;;;3.00;;
20065;SDS011;10193;48.884;9.182;2023-04-07T13:21:29;3.20;;;2.90;;
20065;SDS011;10193;48.884;9.182;2023-04-07T13:23:56;3.40;;;2.67;;
20065;SDS011;10193;48.884;9.182;2023-04-07T13:26:22;3.47;;;2.60;;
20065;SDS011;10193;48.884;9.182;2023-04-07T13:28:50;3.33;;;2.45;;
20065;SDS011;10193;48.884;9.182;2023-04-07T13:31:17;2.22;;;2.13;;
20065;SDS011;10193;48.884;9.182;2023-04-07T13:33:45;2.08;;;1.95;;
20065;SDS011;10193;48.884;9.182;2023-04-07T13:36:13;2.15;;;2.00;;
20065;SDS011;10193;48.884;9.182;2023-04-07T13:38:40;1.80;;;1.70;;
20065;SDS011;10193;48.884;9.182;2023-04-07T13:41:07;2.40;;;2.20;;
20065;SDS011;10193;48.884;9.182;2023-04-07T13:43:33;2.28;;;2.08;;
20065;SDS011;10193;48.884;9.182;2023-04-07T13:46:00;2.15;;;1.98;;
20065;SDS011;10193;48.884;9.182;2023-04-07T13:48:27;2.17;;;2.00;;
20065;SDS011;10193;48.884;9.182;2023-04-07T13:50:53;2.10;;;1.52;;
20065;SDS011;10193;48.884;9.182;2023-04-07T13:53:21;1.90;;;1.73;;
20065;SDS011;10193;48.884;9.182;2023-04-07T13:55:48;2.42;;;1.75;;
20065;SDS011;10193;48.884;9.182;2023-04-07T13:58:15;1.98;;;1.77;;
20065;SDS011;10193;48.884;9.182;2023-04-07T14:00:42;2.08;;;1.98;;
20065;SDS011;10193;48.884;9.182;2023-04-07T14:03:09;1.80;;;1.70;;
20065;SDS011;10193;48.884;9.182;2023-04-07T14:05:36;2.13;;;1.80;;
20065;SDS011;10193;48.884;9.182;2023-04-07T14:08:02;2.53;;;2.30;;
20065;SDS011;10193;48.884;9.182;2023-04-07T14:10:31;2.60;;;2.30;;
20065;SDS011;10193;48.884;9.182;2023-04-07T14:12:57;2.60;;;2.42;;
20065;SDS011;10193;48.884;9.182;2023-04-07T14:15:25;2.40;;;2.20;;
20065;SDS011;10193;48.884;9.182;2023-04-07T14:17:52;2.67;;;2.40;;
20065;SDS011;10193;48.884;9.182;2023-04-07T14:20:19;2.83;;;2.45;;
20065;SDS011;10193;48.884;9.182;2023-04-07T14:22:46;2.75;;;2.55;;
20065;SDS011;10193;48.884;9.182;2023-04-07T14:25:12;3.45;;;2.45;;
20065;SDS011;10193;48.884;9.182;2023-04-07T14:27:40;2.33;;;2.13;;
20065;SDS011;10193;48.884;9.182;2023-04-07T14:30:07;2.85;;;2.38;;
20065;SDS011;10193;48.884;9.182;2023-04-07T14:32:35;2.50;;;2.30;;
20065;SDS011;10193;48.884;9.182;2023-04-07T14:35:01;2.30;;;2.10;;
20065;SDS011;10193;48.884;9.182;2023-04-07T14:37:28;2.45;;;2.25;;
20065;SDS011;10193;48.884;9.182;2023-04-07T14:39:55;2.50;;;2.30;;
20065;SDS011;10193;48.884;9.182;2023-04-07T14:42:22;2.38;;;2.17;;
20065;SDS011;10193;48.884;9.182;2023-04-07T14:44:50;2.60;;;2.40;;
20065;SDS011;10193;48.884;9.182;2023-04-07T14:47:17;2.80;;;2.28;;
20065;SDS011;10193;48.884;9.182;2023-04-07T14:49:44;2.92;;;2.22;;
20065;SDS011;10193;48.884;9.182;2023-04-07T14:52:11;2.50;;;2.17;;
20065;SDS011;10193;48.884;9.182;2023-04-07T14:54:38;2.33;;;2.13;;
20065;SDS011;10193;48.884;9.182;2023-04-07T14:57:05;3.58;;;2.13;;
20065;SDS011;10193;48.884;9.182;2023-04-07T14:59:32;2.20;;;2.00;;
20065;SDS011;10193;48.884;9.182;2023-04-07T15:02:00;2.42;;;2.00;;
20065;SDS011;10193;48.884;9.182;2023-04-07T15:04:26;2.88;;;1.98;;